sensor_id;sensor_type;location;lat;lon;timestamp;P1;durP1;ratioP1;P2;durP2;ratioP2
53875;SDS011;39789;53.216;5.624;2022-09-24T00:01:27;47.55;;;32.75;;
53875;SDS011;39789;53.216;5.624;2022-09-24T00:03:56;43.40;;;31.20;;
53875;SDS011;39789;53.216;5.624;2022-09-24T00:06:24;40.08;;;31.75;;
53875;SDS011;39789;53.216;5.624;2022-09-24T00:08:52;41.42;;;31.00;;
53875;SDS011;39789;53.216;5.624;2022-09-24T00:11:20;43.05;;;31.45;;
53875;SDS011;39789;53.216;5.624;2022-09-24T00:13:47;40.28;;;30.38;;
53875;SDS011;39789;53.216;5.624;2022-09-24T00:16:14;38.10;;;29.63;;
53875;SDS011;39789;53.216;5.624;2022-09-24T00:18:41;41.15;;;30.17;;
53875;SDS011;39789;53.216;5.624;2022-09-24T00:21:23;39.50;;;30.20;;
53875;SDS011;39789;53.216;5.624;2022-09-24T00:23:51;36.60;;;28.77;;
53875;SDS011;39789;53.216;5.624;2022-09-24T00:26:18;37.25;;;28.77;;
53875;SDS011;39789;53.216;5.624;2022-09-24T00:29:03;36.83;;;30.05;;
53875;SDS011;39789;53.216;5.624;2022-09-24T00:31:29;37.08;;;27.40;;
53875;SDS011;39789;53.216;5.624;2022-09-24T00:33:56;43.20;;;29.00;;
53875;SDS011;39789;53.216;5.624;2022-09-24T00:36:22;42.75;;;29.40;;
53875;SDS011;39789;53.216;5.624;2022-09-24T00:38:49;41.65;;;29.40;;
53875;SDS011;39789;53.216;5.624;2022-09-24T00:41:16;45.97;;;31.80;;
53875;SDS011;39789;53.216;5.624;2022-09-24T00:43:44;45.00;;;28.48;;
53875;SDS011;39789;53.216;5.624;2022-09-24T00:46:28;24.40;;;16.58;;
53875;SDS011;39789;53.216;5.624;2022-09-24T00:49:20;14.43;;;10.80;;
53875;SDS011;39789;53.216;5.624;2022-09-24T00:51:46;18.02;;;12.98;;
53875;SDS011;39789;53.216;5.624;2022-09-24T00:54:24;15.25;;;10.02;;
53875;SDS011;39789;53.216;5.624;2022-09-24T00:56:52;16.05;;;8.60;;
53875;SDS011;39789;53.216;5.624;2022-09-24T00:59:22;16.00;;;8.77;;
53875;SDS011;39789;53.216;5.624;2022-09-24T01:01:50;17.70;;;10.43;;
53875;SDS011;39789;53.216;5.624;2022-09-24T01:04:21;15.32;;;7.57;;
53875;SDS011;39789;53.216;5.624;2022-09-24T01:06:48;12.88;;;5.45;;
53875;SDS011;39789;53.216;5.624;2022-09-24T01:09:16;10.48;;;5.32;;
53875;SDS011;39789;53.216;5.624;2022-09-24T01:14:22;8.88;;;6.18;;
53875;SDS011;39789;53.216;5.624;2022-09-24T01:19:59;16.80;;;6.43;;
53875;SDS011;39789;53.216;5.624;2022-09-24T01:28:05;14.30;;;5.40;;
53875;SDS011;39789;53.216;5.624;2022-09-24T01:30:38;13.00;;;4.82;;
53875;SDS011;39789;53.216;5.624;2022-09-24T01:33:06;17.00;;;4.57;;
53875;SDS011;39789;53.216;5.624;2022-09-24T01:35:37;13.13;;;5.70;;
53875;SDS011;39789;53.216;5.624;2022-09-24T01:38:07;10.77;;;5.35;;
53875;SDS011;39789;53.216;5.624;2022-09-24T01:40:37;11.25;;;4.55;;
53875;SDS011;39789;53.216;5.624;2022-09-24T01:43:04;12.93;;;4.50;;
53875;SDS011;39789;53.216;5.624;2022-09-24T01:45:31;13.93;;;4.45;;
53875;SDS011;39789;53.216;5.624;2022-09-24T01:47:59;10.55;;;3.70;;
53875;SDS011;39789;53.216;5.624;2022-09-24T01:50:25;11.50;;;3.40;;
53875;SDS011;39789;53.216;5.624;2022-09-24T01:53:05;7.22;;;2.97;;
53875;SDS011;39789;53.216;5.624;2022-09-24T01:55:36;10.88;;;3.67;;
53875;SDS011;39789;53.216;5.624;2022-09-24T01:58:08;12.15;;;3.38;;
53875;SDS011;39789;53.216;5.624;2022-09-24T02:00:39;14.40;;;4.25;;
53875;SDS011;39789;53.216;5.624;2022-09-24T02:03:28;10.88;;;3.30;;
53875;SDS011;39789;53.216;5.624;2022-09-24T02:06:02;9.75;;;3.55;;
53875;SDS011;39789;53.216;5.624;2022-09-24T02:08:38;10.70;;;3.15;;
53875;SDS011;39789;53.216;5.624;2022-09-24T02:16:20;13.20;;;4.22;;
53875;SDS011;39789;53.216;5.624;2022-09-24T02:19:06;8.73;;;3.55;;
53875;SDS011;39789;53.216;5.624;2022-09-24T02:21:36;9.25;;;4.28;;
53875;SDS011;39789;53.216;5.624;2022-09-24T02:24:04;15.13;;;4.70;;
53875;SDS011;39789;53.216;5.624;2022-09-24T02:26:35;12.38;;;3.70;;
53875;SDS011;39789;53.216;5.624;2022-09-24T02:29:00;17.38;;;3.92;;
53875;SDS011;39789;53.216;5.624;2022-09-24T02:31:30;15.98;;;3.85;;
53875;SDS011;39789;53.216;5.624;2022-09-24T02:34:00;9.57;;;3.70;;
53875;SDS011;39789;53.216;5.624;2022-09-24T02:36:46;12.30;;;3.45;;
53875;SDS011;39789;53.216;5.624;2022-09-24T02:39:13;8.43;;;3.20;;
53875;SDS011;39789;53.216;5.624;2022-09-24T02:41:41;9.18;;;3.80;;
53875;SDS011;39789;53.216;5.624;2022-09-24T02:44:10;10.77;;;3.95;;
53875;SDS011;39789;53.216;5.624;2022-09-24T02:46:36;10.77;;;3.85;;
53875;SDS011;39789;53.216;5.624;2022-09-24T02:49:03;16.02;;;3.60;;
53875;SDS011;39789;53.216;5.624;2022-09-24T02:51:28;13.60;;;3.45;;
53875;SDS011;39789;53.216;5.624;2022-09-24T02:53:54;7.90;;;2.65;;
53875;SDS011;39789;53.216;5.624;2022-09-24T02:56:19;8.75;;;2.60;;
53875;SDS011;39789;53.216;5.624;2022-09-24T02:58:47;12.25;;;3.60;;
53875;SDS011;39789;53.216;5.624;2022-09-24T03:01:12;9.27;;;2.80;;
53875;SDS011;39789;53.216;5.624;2022-09-24T03:03:38;14.68;;;4.15;;
53875;SDS011;39789;53.216;5.624;2022-09-24T03:06:03;9.48;;;3.20;;
53875;SDS011;39789;53.216;5.624;2022-09-24T03:08:30;11.15;;;2.95;;
53875;SDS011;39789;53.216;5.624;2022-09-24T03:10:56;14.25;;;3.63;;
53875;SDS011;39789;53.216;5.624;2022-09-24T03:13:22;16.25;;;3.20;;
53875;SDS011;39789;53.216;5.624;2022-09-24T03:15:47;13.73;;;2.45;;
53875;SDS011;39789;53.216;5.624;2022-09-24T03:18:13;13.98;;;3.13;;
53875;SDS011;39789;53.216;5.624;2022-09-24T03:20:39;12.65;;;3.50;;
53875;SDS011;39789;53.216;5.624;2022-09-24T03:23:05;11.55;;;2.97;;
53875;SDS011;39789;53.216;5.624;2022-09-24T03:25:31;14.02;;;3.35;;
53875;SDS011;39789;53.216;5.624;2022-09-24T03:27:56;8.18;;;3.25;;
53875;SDS011;39789;53.216;5.624;2022-09-24T03:30:22;10.50;;;2.58;;
53875;SDS011;39789;53.216;5.624;2022-09-24T03:33:06;13.47;;;2.93;;
53875;SDS011;39789;53.216;5.624;2022-09-24T03:35:32;10.10;;;3.70;;
53875;SDS011;39789;53.216;5.624;2022-09-24T03:37:57;8.93;;;2.85;;
53875;SDS011;39789;53.216;5.624;2022-09-24T03:40:23;12.75;;;3.13;;
53875;SDS011;39789;53.216;5.624;2022-09-24T03:42:49;10.65;;;2.70;;
53875;SDS011;39789;53.216;5.624;2022-09-24T03:45:15;16.80;;;3.05;;
53875;SDS011;39789;53.216;5.624;2022-09-24T03:47:42;15.50;;;3.28;;
53875;SDS011;39789;53.216;5.624;2022-09-24T03:50:08;12.65;;;2.70;;
53875;SDS011;39789;53.216;5.624;2022-09-24T03:52:37;12.52;;;2.75;;
53875;SDS011;39789;53.216;5.624;2022-09-24T03:55:03;11.00;;;3.08;;
53875;SDS011;39789;53.216;5.624;2022-09-24T03:57:29;12.95;;;2.97;;
53875;SDS011;39789;53.216;5.624;2022-09-24T03:59:54;10.23;;;2.95;;
53875;SDS011;39789;53.216;5.624;2022-09-24T04:02:23;13.63;;;2.75;;
53875;SDS011;39789;53.216;5.624;2022-09-24T04:04:49;11.63;;;2.72;;
53875;SDS011;39789;53.216;5.624;2022-09-24T04:07:16;9.77;;;2.90;;
53875;SDS011;39789;53.216;5.624;2022-09-24T04:09:41;10.23;;;2.58;;
53875;SDS011;39789;53.216;5.624;2022-09-24T04:12:07;13.23;;;3.50;;
53875;SDS011;39789;53.216;5.624;2022-09-24T04:14:33;15.30;;;2.60;;
53875;SDS011;39789;53.216;5.624;2022-09-24T04:16:58;13.35;;;2.90;;
53875;SDS011;39789;53.216;5.624;2022-09-24T04:19:24;11.25;;;2.72;;
53875;SDS011;39789;53.216;5.624;2022-09-24T04:21:51;9.48;;;2.88;;
53875;SDS011;39789;53.216;5.624;2022-09-24T04:24:16;11.68;;;2.92;;
53875;SDS011;39789;53.216;5.624;2022-09-24T04:26:42;13.40;;;3.25;;
53875;SDS011;39789;53.216;5.624;2022-09-24T04:29:08;6.68;;;3.38;;
53875;SDS011;39789;53.216;5.624;2022-09-24T04:31:33;9.95;;;2.47;;
53875;SDS011;39789;53.216;5.624;2022-09-24T04:33:59;6.28;;;2.22;;
53875;SDS011;39789;53.216;5.624;2022-09-24T04:36:24;10.80;;;2.55;;
53875;SDS011;39789;53.216;5.624;2022-09-24T04:38:50;11.30;;;2.80;;
53875;SDS011;39789;53.216;5.624;2022-09-24T04:41:16;13.65;;;5.03;;
53875;SDS011;39789;53.216;5.624;2022-09-24T04:43:41;11.05;;;3.53;;
53875;SDS011;39789;53.216;5.624;2022-09-24T04:46:10;9.63;;;2.33;;
53875;SDS011;39789;53.216;5.624;2022-09-24T04:48:37;13.60;;;2.90;;
53875;SDS011;39789;53.216;5.624;2022-09-24T04:51:04;15.15;;;2.70;;
53875;SDS011;39789;53.216;5.624;2022-09-24T04:53:31;7.95;;;2.53;;
53875;SDS011;39789;53.216;5.624;2022-09-24T04:55:58;5.05;;;2.28;;
53875;SDS011;39789;53.216;5.624;2022-09-24T04:58:27;6.70;;;2.70;;
53875;SDS011;39789;53.216;5.624;2022-09-24T05:00:53;9.65;;;2.45;;
53875;SDS011;39789;53.216;5.624;2022-09-24T05:03:19;10.82;;;2.47;;
53875;SDS011;39789;53.216;5.624;2022-09-24T05:05:45;9.38;;;2.45;;
53875;SDS011;39789;53.216;5.624;2022-09-24T05:08:11;7.50;;;2.03;;
53875;SDS011;39789;53.216;5.624;2022-09-24T05:10:37;6.03;;;1.90;;
53875;SDS011;39789;53.216;5.624;2022-09-24T05:13:03;11.57;;;2.50;;
53875;SDS011;39789;53.216;5.624;2022-09-24T05:15:29;15.05;;;3.42;;
53875;SDS011;39789;53.216;5.624;2022-09-24T05:17:55;11.27;;;2.63;;
53875;SDS011;39789;53.216;5.624;2022-09-24T05:20:21;7.05;;;2.25;;
53875;SDS011;39789;53.216;5.624;2022-09-24T05:22:47;8.30;;;2.83;;
53875;SDS011;39789;53.216;5.624;2022-09-24T05:25:14;7.97;;;2.83;;
53875;SDS011;39789;53.216;5.624;2022-09-24T05:27:44;12.40;;;2.83;;
53875;SDS011;39789;53.216;5.624;2022-09-24T05:30:10;13.10;;;3.15;;
53875;SDS011;39789;53.216;5.624;2022-09-24T05:32:36;9.63;;;2.55;;
53875;SDS011;39789;53.216;5.624;2022-09-24T05:35:02;10.32;;;2.38;;
53875;SDS011;39789;53.216;5.624;2022-09-24T05:37:28;10.50;;;3.53;;
53875;SDS011;39789;53.216;5.624;2022-09-24T05:39:54;9.18;;;2.67;;
53875;SDS011;39789;53.216;5.624;2022-09-24T05:42:19;10.95;;;2.17;;
53875;SDS011;39789;53.216;5.624;2022-09-24T05:44:46;8.77;;;2.22;;
53875;SDS011;39789;53.216;5.624;2022-09-24T05:47:12;9.90;;;2.25;;
53875;SDS011;39789;53.216;5.624;2022-09-24T05:49:37;12.13;;;2.28;;
53875;SDS011;39789;53.216;5.624;2022-09-24T05:52:04;11.73;;;2.40;;
53875;SDS011;39789;53.216;5.624;2022-09-24T05:54:31;8.05;;;2.00;;
53875;SDS011;39789;53.216;5.624;2022-09-24T05:56:57;9.88;;;2.00;;
53875;SDS011;39789;53.216;5.624;2022-09-24T05:59:22;5.95;;;1.95;;
53875;SDS011;39789;53.216;5.624;2022-09-24T06:01:48;10.45;;;2.30;;
53875;SDS011;39789;53.216;5.624;2022-09-24T06:04:14;9.88;;;2.28;;
53875;SDS011;39789;53.216;5.624;2022-09-24T06:06:41;10.68;;;2.83;;
53875;SDS011;39789;53.216;5.624;2022-09-24T06:09:07;12.70;;;2.53;;
53875;SDS011;39789;53.216;5.624;2022-09-24T06:11:33;9.35;;;2.13;;
53875;SDS011;39789;53.216;5.624;2022-09-24T06:14:00;10.90;;;3.20;;
53875;SDS011;39789;53.216;5.624;2022-09-24T06:16:27;11.40;;;2.65;;
53875;SDS011;39789;53.216;5.624;2022-09-24T06:18:53;8.88;;;1.98;;
53875;SDS011;39789;53.216;5.624;2022-09-24T06:21:18;12.38;;;2.35;;
53875;SDS011;39789;53.216;5.624;2022-09-24T06:23:44;6.57;;;1.67;;
53875;SDS011;39789;53.216;5.624;2022-09-24T06:26:10;6.65;;;2.53;;
53875;SDS011;39789;53.216;5.624;2022-09-24T06:28:37;10.57;;;2.10;;
53875;SDS011;39789;53.216;5.624;2022-09-24T06:31:04;8.60;;;1.98;;
53875;SDS011;39789;53.216;5.624;2022-09-24T06:33:30;12.75;;;2.17;;
53875;SDS011;39789;53.216;5.624;2022-09-24T06:36:00;9.10;;;3.03;;
53875;SDS011;39789;53.216;5.624;2022-09-24T06:38:28;5.88;;;1.77;;
53875;SDS011;39789;53.216;5.624;2022-09-24T06:40:58;8.35;;;2.20;;
53875;SDS011;39789;53.216;5.624;2022-09-24T06:43:25;7.60;;;2.17;;
53875;SDS011;39789;53.216;5.624;2022-09-24T06:45:53;6.60;;;2.30;;
53875;SDS011;39789;53.216;5.624;2022-09-24T06:48:20;10.15;;;2.35;;
53875;SDS011;39789;53.216;5.624;2022-09-24T06:50:48;7.68;;;1.65;;
53875;SDS011;39789;53.216;5.624;2022-09-24T06:53:14;7.97;;;2.28;;
53875;SDS011;39789;53.216;5.624;2022-09-24T06:58:28;7.22;;;1.90;;
53875;SDS011;39789;53.216;5.624;2022-09-24T07:00:55;7.47;;;2.30;;
53875;SDS011;39789;53.216;5.624;2022-09-24T07:03:23;6.28;;;1.90;;
53875;SDS011;39789;53.216;5.624;2022-09-24T07:05:49;5.85;;;2.22;;
53875;SDS011;39789;53.216;5.624;2022-09-24T07:08:19;5.28;;;2.30;;
53875;SDS011;39789;53.216;5.624;2022-09-24T07:10:49;9.43;;;2.30;;
53875;SDS011;39789;53.216;5.624;2022-09-24T07:13:16;2.92;;;1.60;;
53875;SDS011;39789;53.216;5.624;2022-09-24T07:15:45;8.25;;;1.88;;
53875;SDS011;39789;53.216;5.624;2022-09-24T07:21:52;7.53;;;2.17;;
53875;SDS011;39789;53.216;5.624;2022-09-24T07:24:18;7.78;;;2.17;;
53875;SDS011;39789;53.216;5.624;2022-09-24T07:29:18;13.60;;;2.95;;
53875;SDS011;39789;53.216;5.624;2022-09-24T07:31:44;8.82;;;2.17;;
53875;SDS011;39789;53.216;5.624;2022-09-24T07:34:09;7.20;;;1.83;;
53875;SDS011;39789;53.216;5.624;2022-09-24T07:36:39;5.20;;;1.90;;
53875;SDS011;39789;53.216;5.624;2022-09-24T07:42:46;3.95;;;1.80;;
53875;SDS011;39789;53.216;5.624;2022-09-24T07:45:23;8.77;;;2.22;;
53875;SDS011;39789;53.216;5.624;2022-09-24T07:47:59;6.80;;;2.05;;
53875;SDS011;39789;53.216;5.624;2022-09-24T07:50:27;6.03;;;1.90;;
53875;SDS011;39789;53.216;5.624;2022-09-24T07:52:54;7.38;;;2.05;;
53875;SDS011;39789;53.216;5.624;2022-09-24T07:55:23;9.13;;;2.22;;
53875;SDS011;39789;53.216;5.624;2022-09-24T07:57:50;9.27;;;2.83;;
53875;SDS011;39789;53.216;5.624;2022-09-24T08:03:59;5.18;;;1.73;;
53875;SDS011;39789;53.216;5.624;2022-09-24T08:06:25;7.38;;;1.67;;
53875;SDS011;39789;53.216;5.624;2022-09-24T08:08:51;5.00;;;2.15;;
53875;SDS011;39789;53.216;5.624;2022-09-24T08:11:17;5.88;;;1.50;;
53875;SDS011;39789;53.216;5.624;2022-09-24T08:13:44;8.90;;;1.90;;
53875;SDS011;39789;53.216;5.624;2022-09-24T08:16:10;8.38;;;1.98;;
53875;SDS011;39789;53.216;5.624;2022-09-24T08:18:36;6.63;;;1.65;;
53875;SDS011;39789;53.216;5.624;2022-09-24T08:23:31;2.03;;;1.33;;
53875;SDS011;39789;53.216;5.624;2022-09-24T08:25:57;4.65;;;1.55;;
53875;SDS011;39789;53.216;5.624;2022-09-24T08:28:24;4.80;;;1.67;;
53875;SDS011;39789;53.216;5.624;2022-09-24T08:30:49;8.25;;;1.63;;
53875;SDS011;39789;53.216;5.624;2022-09-24T08:33:15;4.38;;;1.42;;
53875;SDS011;39789;53.216;5.624;2022-09-24T08:35:42;5.43;;;1.77;;
53875;SDS011;39789;53.216;5.624;2022-09-24T08:38:08;7.15;;;1.65;;
53875;SDS011;39789;53.216;5.624;2022-09-24T08:40:38;6.90;;;2.13;;
53875;SDS011;39789;53.216;5.624;2022-09-24T08:43:17;5.50;;;1.85;;
53875;SDS011;39789;53.216;5.624;2022-09-24T08:49:04;9.48;;;2.15;;
53875;SDS011;39789;53.216;5.624;2022-09-24T08:51:38;9.75;;;2.10;;
53875;SDS011;39789;53.216;5.624;2022-09-24T08:54:21;2.70;;;1.67;;
53875;SDS011;39789;53.216;5.624;2022-09-24T08:56:49;8.32;;;1.92;;
53875;SDS011;39789;53.216;5.624;2022-09-24T08:59:32;2.85;;;1.60;;
53875;SDS011;39789;53.216;5.624;2022-09-24T09:02:12;5.28;;;1.60;;
53875;SDS011;39789;53.216;5.624;2022-09-24T09:05:03;6.97;;;1.75;;
53875;SDS011;39789;53.216;5.624;2022-09-24T09:10:45;9.18;;;2.08;;
53875;SDS011;39789;53.216;5.624;2022-09-24T09:13:14;5.57;;;1.55;;
53875;SDS011;39789;53.216;5.624;2022-09-24T09:15:51;5.80;;;1.92;;
53875;SDS011;39789;53.216;5.624;2022-09-24T09:18:41;6.15;;;1.73;;
53875;SDS011;39789;53.216;5.624;2022-09-24T09:23:48;7.38;;;2.08;;
53875;SDS011;39789;53.216;5.624;2022-09-24T09:26:15;9.00;;;1.60;;
53875;SDS011;39789;53.216;5.624;2022-09-24T09:28:45;6.97;;;2.03;;
53875;SDS011;39789;53.216;5.624;2022-09-24T09:34:23;5.85;;;1.67;;
53875;SDS011;39789;53.216;5.624;2022-09-24T09:37:05;7.35;;;2.47;;
53875;SDS011;39789;53.216;5.624;2022-09-24T09:42:34;6.05;;;2.50;;
53875;SDS011;39789;53.216;5.624;2022-09-24T09:45:02;3.72;;;1.95;;
53875;SDS011;39789;53.216;5.624;2022-09-24T09:47:56;4.57;;;1.83;;
53875;SDS011;39789;53.216;5.624;2022-09-24T09:50:39;7.13;;;1.85;;
53875;SDS011;39789;53.216;5.624;2022-09-24T09:53:26;6.47;;;2.42;;
53875;SDS011;39789;53.216;5.624;2022-09-24T09:56:13;6.55;;;1.95;;
53875;SDS011;39789;53.216;5.624;2022-09-24T09:58:40;6.57;;;2.35;;
53875;SDS011;39789;53.216;5.624;2022-09-24T10:01:12;6.28;;;1.70;;
53875;SDS011;39789;53.216;5.624;2022-09-24T10:06:25;4.10;;;1.42;;
53875;SDS011;39789;53.216;5.624;2022-09-24T10:08:53;5.75;;;2.13;;
53875;SDS011;39789;53.216;5.624;2022-09-24T10:11:20;5.25;;;1.73;;
53875;SDS011;39789;53.216;5.624;2022-09-24T10:13:46;8.90;;;1.85;;
53875;SDS011;39789;53.216;5.624;2022-09-24T10:16:25;5.45;;;1.60;;
53875;SDS011;39789;53.216;5.624;2022-09-24T10:18:50;6.97;;;1.75;;
53875;SDS011;39789;53.216;5.624;2022-09-24T10:21:28;10.60;;;2.85;;
53875;SDS011;39789;53.216;5.624;2022-09-24T10:24:02;5.75;;;1.85;;
53875;SDS011;39789;53.216;5.624;2022-09-24T10:26:39;5.85;;;1.65;;
53875;SDS011;39789;53.216;5.624;2022-09-24T10:29:12;7.10;;;2.03;;
53875;SDS011;39789;53.216;5.624;2022-09-24T10:32:18;6.75;;;1.70;;
53875;SDS011;39789;53.216;5.624;2022-09-24T10:35:15;9.50;;;2.13;;
53875;SDS011;39789;53.216;5.624;2022-09-24T10:37:49;5.43;;;2.03;;
53875;SDS011;39789;53.216;5.624;2022-09-24T10:40:18;13.48;;;1.98;;
53875;SDS011;39789;53.216;5.624;2022-09-24T10:42:58;8.23;;;1.48;;
53875;SDS011;39789;53.216;5.624;2022-09-24T10:56:32;4.97;;;1.95;;
53875;SDS011;39789;53.216;5.624;2022-09-24T11:01:50;3.33;;;1.38;;
53875;SDS011;39789;53.216;5.624;2022-09-24T11:07:16;7.88;;;2.08;;
53875;SDS011;39789;53.216;5.624;2022-09-24T11:10:22;6.10;;;1.45;;
53875;SDS011;39789;53.216;5.624;2022-09-24T11:15:56;5.38;;;1.52;;
53875;SDS011;39789;53.216;5.624;2022-09-24T11:18:47;3.15;;;1.65;;
53875;SDS011;39789;53.216;5.624;2022-09-24T11:35:54;5.65;;;1.40;;
53875;SDS011;39789;53.216;5.624;2022-09-24T11:46:59;5.22;;;1.20;;
53875;SDS011;39789;53.216;5.624;2022-09-24T11:57:56;4.43;;;2.13;;
53875;SDS011;39789;53.216;5.624;2022-09-24T12:00:54;6.63;;;1.70;;
53875;SDS011;39789;53.216;5.624;2022-09-24T12:03:33;3.75;;;1.77;;
53875;SDS011;39789;53.216;5.624;2022-09-24T12:06:08;7.10;;;1.60;;
53875;SDS011;39789;53.216;5.624;2022-09-24T12:08:38;8.65;;;1.75;;
53875;SDS011;39789;53.216;5.624;2022-09-24T12:11:21;6.43;;;1.60;;
53875;SDS011;39789;53.216;5.624;2022-09-24T12:13:56;3.85;;;1.10;;
53875;SDS011;39789;53.216;5.624;2022-09-24T12:16:31;2.60;;;1.40;;
53875;SDS011;39789;53.216;5.624;2022-09-24T12:19:38;4.53;;;1.55;;
53875;SDS011;39789;53.216;5.624;2022-09-24T12:22:06;4.68;;;1.13;;
53875;SDS011;39789;53.216;5.624;2022-09-24T12:24:37;3.85;;;1.25;;
53875;SDS011;39789;53.216;5.624;2022-09-24T12:27:09;4.70;;;1.55;;
53875;SDS011;39789;53.216;5.624;2022-09-24T12:32:40;3.00;;;1.23;;
53875;SDS011;39789;53.216;5.624;2022-09-24T12:38:30;4.03;;;1.38;;
53875;SDS011;39789;53.216;5.624;2022-09-24T12:41:12;3.50;;;1.08;;
53875;SDS011;39789;53.216;5.624;2022-09-24T12:43:56;4.43;;;1.40;;
53875;SDS011;39789;53.216;5.624;2022-09-24T12:46:28;4.30;;;1.30;;
53875;SDS011;39789;53.216;5.624;2022-09-24T12:48:59;3.45;;;1.48;;
53875;SDS011;39789;53.216;5.624;2022-09-24T12:51:32;5.68;;;1.40;;
53875;SDS011;39789;53.216;5.624;2022-09-24T12:54:06;2.60;;;1.20;;
53875;SDS011;39789;53.216;5.624;2022-09-24T12:56:44;4.78;;;1.27;;
53875;SDS011;39789;53.216;5.624;2022-09-24T12:59:23;3.80;;;1.25;;
53875;SDS011;39789;53.216;5.624;2022-09-24T13:01:50;5.82;;;1.23;;
53875;SDS011;39789;53.216;5.624;2022-09-24T13:06:42;5.82;;;1.40;;
53875;SDS011;39789;53.216;5.624;2022-09-24T13:09:32;4.70;;;1.40;;
53875;SDS011;39789;53.216;5.624;2022-09-24T13:12:00;4.47;;;1.40;;
53875;SDS011;39789;53.216;5.624;2022-09-24T13:14:26;5.57;;;1.10;;
53875;SDS011;39789;53.216;5.624;2022-09-24T13:16:56;3.72;;;1.13;;
53875;SDS011;39789;53.216;5.624;2022-09-24T13:22:03;3.95;;;1.25;;
53875;SDS011;39789;53.216;5.624;2022-09-24T13:24:30;6.90;;;1.40;;
53875;SDS011;39789;53.216;5.624;2022-09-24T13:27:23;4.72;;;1.50;;
53875;SDS011;39789;53.216;5.624;2022-09-24T13:30:03;4.07;;;1.13;;
53875;SDS011;39789;53.216;5.624;2022-09-24T13:32:36;3.50;;;1.20;;
53875;SDS011;39789;53.216;5.624;2022-09-24T13:35:10;5.25;;;1.30;;
53875;SDS011;39789;53.216;5.624;2022-09-24T13:37:41;4.72;;;1.13;;
53875;SDS011;39789;53.216;5.624;2022-09-24T13:40:24;7.18;;;0.98;;
53875;SDS011;39789;53.216;5.624;2022-09-24T13:43:03;4.97;;;1.25;;
53875;SDS011;39789;53.216;5.624;2022-09-24T13:45:37;4.57;;;1.85;;
53875;SDS011;39789;53.216;5.624;2022-09-24T13:48:12;3.55;;;1.67;;
53875;SDS011;39789;53.216;5.624;2022-09-24T13:50:55;7.63;;;2.35;;
53875;SDS011;39789;53.216;5.624;2022-09-24T13:53:27;3.45;;;1.70;;
53875;SDS011;39789;53.216;5.624;2022-09-24T13:56:04;4.05;;;1.40;;
53875;SDS011;39789;53.216;5.624;2022-09-24T13:58:38;4.32;;;1.20;;
53875;SDS011;39789;53.216;5.624;2022-09-24T14:01:10;6.30;;;2.15;;
53875;SDS011;39789;53.216;5.624;2022-09-24T14:03:40;7.28;;;1.85;;
53875;SDS011;39789;53.216;5.624;2022-09-24T14:06:15;4.00;;;1.40;;
53875;SDS011;39789;53.216;5.624;2022-09-24T14:08:46;6.05;;;1.52;;
53875;SDS011;39789;53.216;5.624;2022-09-24T14:11:19;5.88;;;1.63;;
53875;SDS011;39789;53.216;5.624;2022-09-24T14:13:48;4.90;;;1.38;;
53875;SDS011;39789;53.216;5.624;2022-09-24T14:16:20;5.97;;;1.63;;
53875;SDS011;39789;53.216;5.624;2022-09-24T14:18:47;6.55;;;1.80;;
53875;SDS011;39789;53.216;5.624;2022-09-24T14:21:32;2.53;;;1.45;;
53875;SDS011;39789;53.216;5.624;2022-09-24T14:24:03;9.48;;;2.17;;
53875;SDS011;39789;53.216;5.624;2022-09-24T14:26:42;7.72;;;1.30;;
53875;SDS011;39789;53.216;5.624;2022-09-24T14:29:14;5.22;;;1.35;;
53875;SDS011;39789;53.216;5.624;2022-09-24T14:31:48;6.50;;;1.70;;
53875;SDS011;39789;53.216;5.624;2022-09-24T14:37:17;3.58;;;1.38;;
53875;SDS011;39789;53.216;5.624;2022-09-24T14:39:57;4.03;;;1.40;;
53875;SDS011;39789;53.216;5.624;2022-09-24T14:42:32;5.75;;;1.75;;
53875;SDS011;39789;53.216;5.624;2022-09-24T14:45:29;4.50;;;1.52;;
53875;SDS011;39789;53.216;5.624;2022-09-24T14:50:58;5.70;;;1.30;;
53875;SDS011;39789;53.216;5.624;2022-09-24T14:53:31;4.68;;;1.70;;
53875;SDS011;39789;53.216;5.624;2022-09-24T14:56:00;3.83;;;1.30;;
53875;SDS011;39789;53.216;5.624;2022-09-24T14:58:44;5.93;;;1.63;;
53875;SDS011;39789;53.216;5.624;2022-09-24T15:01:12;4.60;;;1.15;;
53875;SDS011;39789;53.216;5.624;2022-09-24T15:03:44;4.40;;;1.23;;
53875;SDS011;39789;53.216;5.624;2022-09-24T15:06:21;6.15;;;1.52;;
53875;SDS011;39789;53.216;5.624;2022-09-24T15:08:57;4.32;;;1.20;;
53875;SDS011;39789;53.216;5.624;2022-09-24T15:11:25;3.85;;;1.45;;
53875;SDS011;39789;53.216;5.624;2022-09-24T15:14:02;3.13;;;1.77;;
53875;SDS011;39789;53.216;5.624;2022-09-24T15:16:43;5.72;;;1.30;;
53875;SDS011;39789;53.216;5.624;2022-09-24T15:19:15;4.53;;;1.60;;
53875;SDS011;39789;53.216;5.624;2022-09-24T15:21:46;3.05;;;1.60;;
53875;SDS011;39789;53.216;5.624;2022-09-24T15:24:13;4.80;;;1.40;;
53875;SDS011;39789;53.216;5.624;2022-09-24T15:26:41;7.07;;;1.58;;
53875;SDS011;39789;53.216;5.624;2022-09-24T15:29:16;8.13;;;1.80;;
53875;SDS011;39789;53.216;5.624;2022-09-24T15:31:44;5.07;;;1.48;;
53875;SDS011;39789;53.216;5.624;2022-09-24T15:34:11;6.00;;;1.40;;
53875;SDS011;39789;53.216;5.624;2022-09-24T15:36:36;4.75;;;1.23;;
53875;SDS011;39789;53.216;5.624;2022-09-24T15:39:02;3.80;;;1.00;;
53875;SDS011;39789;53.216;5.624;2022-09-24T15:41:28;5.13;;;1.75;;
53875;SDS011;39789;53.216;5.624;2022-09-24T15:43:55;4.07;;;1.27;;
53875;SDS011;39789;53.216;5.624;2022-09-24T15:46:22;1.88;;;1.00;;
53875;SDS011;39789;53.216;5.624;2022-09-24T15:48:48;3.08;;;1.10;;
53875;SDS011;39789;53.216;5.624;2022-09-24T15:51:14;6.03;;;1.33;;
53875;SDS011;39789;53.216;5.624;2022-09-24T15:53:43;5.35;;;1.30;;
53875;SDS011;39789;53.216;5.624;2022-09-24T15:56:09;3.42;;;1.77;;
53875;SDS011;39789;53.216;5.624;2022-09-24T15:58:35;5.93;;;1.92;;
53875;SDS011;39789;53.216;5.624;2022-09-24T16:03:55;6.10;;;1.65;;
53875;SDS011;39789;53.216;5.624;2022-09-24T16:06:21;8.45;;;1.70;;
53875;SDS011;39789;53.216;5.624;2022-09-24T16:08:48;3.95;;;1.20;;
53875;SDS011;39789;53.216;5.624;2022-09-24T16:11:13;8.40;;;1.50;;
53875;SDS011;39789;53.216;5.624;2022-09-24T16:13:39;2.67;;;1.17;;
53875;SDS011;39789;53.216;5.624;2022-09-24T16:16:05;5.55;;;1.35;;
53875;SDS011;39789;53.216;5.624;2022-09-24T16:18:31;1.95;;;1.13;;
53875;SDS011;39789;53.216;5.624;2022-09-24T16:20:57;3.55;;;1.40;;
53875;SDS011;39789;53.216;5.624;2022-09-24T16:23:23;3.17;;;1.30;;
53875;SDS011;39789;53.216;5.624;2022-09-24T16:25:52;3.05;;;1.10;;
53875;SDS011;39789;53.216;5.624;2022-09-24T16:28:19;4.45;;;1.20;;
53875;SDS011;39789;53.216;5.624;2022-09-24T16:30:45;5.40;;;1.20;;
53875;SDS011;39789;53.216;5.624;2022-09-24T16:33:11;8.98;;;1.67;;
53875;SDS011;39789;53.216;5.624;2022-09-24T16:35:37;3.17;;;1.23;;
53875;SDS011;39789;53.216;5.624;2022-09-24T16:38:02;3.67;;;1.42;;
53875;SDS011;39789;53.216;5.624;2022-09-24T16:40:28;6.85;;;2.42;;
53875;SDS011;39789;53.216;5.624;2022-09-24T16:42:53;4.80;;;1.80;;
53875;SDS011;39789;53.216;5.624;2022-09-24T16:45:19;5.60;;;1.48;;
53875;SDS011;39789;53.216;5.624;2022-09-24T16:47:45;4.32;;;1.42;;
53875;SDS011;39789;53.216;5.624;2022-09-24T16:50:10;6.97;;;1.55;;
53875;SDS011;39789;53.216;5.624;2022-09-24T16:52:36;7.50;;;1.55;;
53875;SDS011;39789;53.216;5.624;2022-09-24T16:55:01;5.22;;;1.77;;
53875;SDS011;39789;53.216;5.624;2022-09-24T16:57:27;8.68;;;1.52;;
53875;SDS011;39789;53.216;5.624;2022-09-24T16:59:54;4.57;;;1.15;;
53875;SDS011;39789;53.216;5.624;2022-09-24T17:02:20;6.20;;;1.23;;
53875;SDS011;39789;53.216;5.624;2022-09-24T17:04:46;5.22;;;1.85;;
53875;SDS011;39789;53.216;5.624;2022-09-24T17:07:11;8.52;;;1.55;;